Valdez, Alaska
Current Conditions -  °F | °C
As of 12:56 AM on Sunday 21 Dec 2014 (Local Time) from PAVD Reporting Station
Overcast Overcast  
Wind Chill: 20°   Ceiling: 7500
Heat Index: 27°   Visibility: 10mi
Dew Point: 18°   Wind: 6mph
Humidity: 69%   Direction: 50°NE
Pressure: 29.02"   Gusts: NA
Location:  61.13°N, 146.35°W
Report Text: PAVD 210956Z 05005KT 10SM BKN075 OVC090 M03/M08 A2902 RMK AO1
Loading
Personal Weather Stations






























Interactive Weather Map New forecast layout! Learn more

10-Day Weather Forecast

Advertisements
Track Severe Weather on mobile